createdAt,value
2018-05-03T00:00:01.586Z,3.39
2018-05-03T00:09:56.766Z,3.39
2018-05-03T00:19:53.309Z,3.39
2018-05-03T00:29:49.739Z,3.39
2018-05-03T00:39:45.199Z,3.39
2018-05-03T00:49:43.095Z,3.39
2018-05-03T00:59:39.732Z,3.38
2018-05-03T01:09:35.641Z,3.38
2018-05-03T01:19:34.457Z,3.38
2018-05-03T01:29:31.464Z,3.38
2018-05-03T01:39:27.090Z,3.38
2018-05-03T01:49:24.078Z,3.38
2018-05-03T01:59:23.821Z,3.37
2018-05-03T02:09:21.545Z,3.37
2018-05-03T02:19:17.981Z,3.37
2018-05-03T02:29:15.322Z,3.37
2018-05-03T02:39:10.218Z,3.37
2018-05-03T02:49:07.568Z,3.37
2018-05-03T02:59:04.435Z,3.37
2018-05-03T03:08:59.791Z,3.37
2018-05-03T03:18:58.033Z,3.36
2018-05-03T03:28:51.945Z,3.36
2018-05-03T03:38:49.701Z,3.36
2018-05-03T03:48:47.568Z,3.36
2018-05-03T03:58:44.611Z,3.36
2018-05-03T04:08:39.797Z,3.36
2018-05-03T04:18:39.345Z,3.36
2018-05-03T04:28:23.034Z,3.37
2018-05-03T04:38:22.080Z,3.37
2018-05-03T04:48:20.720Z,3.38
2018-05-03T04:58:18.851Z,3.38
2018-05-03T05:08:14.557Z,3.39
2018-05-03T05:18:10.617Z,3.39
2018-05-03T05:28:09.869Z,3.39
2018-05-03T05:38:07.473Z,3.40
2018-05-03T05:48:06.816Z,3.40
2018-05-03T05:58:04.729Z,3.40
2018-05-03T06:08:02.579Z,3.41
2018-05-03T06:17:59.409Z,3.42
2018-05-03T06:27:58.525Z,3.42
2018-05-03T06:37:57.608Z,3.43
2018-05-03T06:47:53.431Z,3.44
2018-05-03T06:57:51.428Z,3.44
2018-05-03T07:07:49.414Z,3.45
2018-05-03T07:17:46.940Z,3.45
2018-05-03T07:27:44.770Z,3.43
2018-05-03T07:37:43.205Z,3.43
2018-05-03T07:47:42.050Z,3.43
2018-05-03T07:57:37.968Z,3.42
2018-05-03T08:07:29.823Z,3.42
2018-05-03T08:17:27.970Z,3.45
2018-05-03T08:27:20.524Z,3.44
2018-05-03T08:37:17.492Z,3.43
2018-05-03T08:47:14.068Z,3.43
2018-05-03T08:57:12.549Z,3.43
2018-05-03T09:07:08.829Z,3.43
2018-05-03T09:17:07.570Z,3.43
2018-05-03T09:27:03.594Z,3.43
2018-05-03T09:36:59.890Z,3.43
2018-05-03T09:46:55.798Z,3.42
2018-05-03T09:56:51.981Z,3.42
2018-05-03T10:06:47.828Z,3.42
2018-05-03T10:16:46.457Z,3.42
2018-05-03T10:26:43.228Z,3.42
2018-05-03T10:36:39.013Z,3.42
2018-05-03T10:46:21.679Z,3.42
2018-05-03T10:55:52.337Z,3.42
2018-05-03T11:05:32.295Z,3.42
2018-05-03T11:15:01.619Z,3.42
2018-05-03T11:24:38.913Z,3.42
2018-05-03T11:34:20.705Z,3.42
2018-05-03T11:43:50.726Z,3.42
2018-05-03T11:53:26.911Z,3.42
2018-05-03T12:03:05.403Z,3.43
2018-05-03T12:12:43.110Z,3.43
2018-05-03T12:22:20.093Z,3.42
2018-05-03T12:31:57.558Z,3.43
2018-05-03T12:41:35.847Z,3.43
2018-05-03T12:51:13.448Z,3.43
2018-05-03T13:00:51.628Z,3.43
2018-05-03T13:10:30.264Z,3.43
2018-05-03T13:20:09.449Z,3.43
2018-05-03T13:29:44.995Z,3.43
2018-05-03T13:39:20.069Z,3.43
2018-05-03T13:49:02.945Z,3.43
2018-05-03T13:58:39.682Z,3.43
2018-05-03T14:08:10.810Z,3.42
2018-05-03T14:17:48.205Z,3.42
2018-05-03T14:27:32.002Z,3.43
2018-05-03T14:37:08.308Z,3.43
2018-05-03T14:46:48.413Z,3.43
2018-05-03T14:56:27.790Z,3.43
2018-05-03T15:06:05.351Z,3.43
2018-05-03T15:15:35.135Z,3.42
2018-05-03T15:25:15.386Z,3.42
2018-05-03T15:34:41.276Z,3.42
2018-05-03T15:44:21.322Z,3.42
2018-05-03T15:54:08.738Z,3.42
2018-05-03T16:04:04.888Z,3.43
2018-05-03T16:13:56.967Z,3.43
2018-05-03T16:23:53.521Z,3.43
2018-05-03T16:33:45.967Z,3.43
2018-05-03T16:43:42.636Z,3.44
2018-05-03T16:53:39.027Z,3.44
2018-05-03T17:03:31.831Z,3.44
2018-05-03T17:13:28.007Z,3.44
2018-05-03T17:23:23.807Z,3.44
2018-05-03T17:33:20.940Z,3.44
2018-05-03T17:43:16.877Z,3.43
2018-05-03T17:53:14.458Z,3.43
2018-05-03T18:03:09.510Z,3.43
2018-05-03T18:13:02.420Z,3.42
2018-05-03T18:22:57.188Z,3.42
2018-05-03T18:32:50.776Z,3.42
2018-05-03T18:42:44.020Z,3.41
2018-05-03T18:52:40.252Z,3.41
2018-05-03T19:02:36.872Z,3.41
2018-05-03T19:12:34.759Z,3.41
2018-05-03T19:22:32.229Z,3.41
2018-05-03T19:32:29.495Z,3.40
2018-05-03T19:42:25.986Z,3.40
2018-05-03T19:52:23.737Z,3.40
2018-05-03T20:02:19.333Z,3.40
2018-05-03T20:12:12.845Z,3.40
2018-05-03T20:22:09.093Z,3.40
2018-05-03T20:32:04.189Z,3.40
2018-05-03T20:42:02.961Z,3.40
2018-05-03T20:51:58.699Z,3.40
2018-05-03T21:01:56.500Z,3.39
2018-05-03T21:11:54.300Z,3.39
2018-05-03T21:21:51.402Z,3.39
2018-05-03T21:31:44.148Z,3.39
2018-05-03T21:41:42.447Z,3.39
2018-05-03T21:51:38.856Z,3.39
2018-05-03T22:01:34.314Z,3.39
2018-05-03T22:11:30.385Z,3.39
2018-05-03T22:21:28.281Z,3.39
2018-05-03T22:31:24.832Z,3.39
2018-05-03T22:41:19.900Z,3.39
2018-05-03T22:51:18.332Z,3.39
2018-05-03T23:01:17.056Z,3.39
2018-05-03T23:11:13.774Z,3.39
2018-05-03T23:21:09.657Z,3.39
2018-05-03T23:31:06.167Z,3.39
2018-05-03T23:41:03.779Z,3.39
2018-05-03T23:50:59.780Z,3.38
